Time;durP1;ratioP1;P1;durP2;ratioP2;P2;SDS_P1;SDS_P2;PMS_P1;PMS_P2;Temp;Humidity;BMP_temperature;BMP_pressure;BME280_temperature;BME280_humidity;BME280_pressure;Samples;Min_cycle;Max_cycle;Signal;HPM_P1;HPM_P2
2022/05/25 00:01:42;;;;;;;0.77;0.60;;;;;;;15.07;86.47;97862.53;5114557;28;20225;-74
2022/05/25 00:04:09;;;;;;;0.70;0.70;;;;;;;15.07;83.69;97872.34;5112023;28;20226;-74
2022/05/25 00:06:36;;;;;;;0.60;0.60;;;;;;;15.11;82.70;97869.28;5114607;28;20213;-76
2022/05/25 00:09:03;;;;;;;0.80;0.73;;;;;;;15.14;83.00;97862.81;5108615;28;20232;-74
2022/05/25 00:11:29;;;;;;;0.87;0.70;;;;;;;15.16;82.13;97864.34;5111761;28;20216;-75
2022/05/25 00:13:57;;;;;;;0.93;0.73;;;;;;;15.17;82.57;97865.19;5111914;28;20270;-75
2022/05/25 00:16:24;;;;;;;1.13;0.63;;;;;;;15.20;83.01;97864.91;5103341;28;20237;-74
2022/05/25 00:21:35;;;;;;;0.80;0.80;;;;;;;15.21;83.08;97869.28;5114121;28;20686;-74
2022/05/25 00:24:01;;;;;;;1.03;0.80;;;;;;;15.19;83.75;97868.53;5112456;28;20221;-74
2022/05/25 00:26:28;;;;;;;1.07;0.80;;;;;;;15.18;84.25;97872.19;5114046;28;20214;-74
2022/05/25 00:28:54;;;;;;;1.37;0.80;;;;;;;15.19;84.17;97865.88;5114315;28;20202;-74
2022/05/25 00:31:22;;;;;;;1.03;0.80;;;;;;;15.20;80.30;97863.09;5109155;28;20221;-74
2022/05/25 00:33:49;;;;;;;2.03;0.70;;;;;;;15.20;79.84;97862.25;5114785;28;20217;-74
2022/05/25 00:36:16;;;;;;;2.40;0.80;;;;;;;15.14;78.95;97857.47;5114087;28;20324;-74
2022/05/25 00:38:42;;;;;;;1.27;0.80;;;;;;;15.11;79.80;97869.28;5114242;28;20241;-74
2022/05/25 00:41:09;;;;;;;2.33;1.10;;;;;;;15.13;78.50;97866.44;5110963;28;20297;-74
2022/05/25 00:43:35;;;;;;;0.60;0.60;;;;;;;15.08;78.49;97864.22;5110837;28;20721;-74
2022/05/25 00:46:07;;;;;;;1.60;0.83;;;;;;;15.07;78.36;97872.34;5112053;28;20213;-74
2022/05/25 00:48:38;;;;;;;0.83;0.60;;;;;;;15.10;76.77;97862.25;5113419;28;20673;-76
2022/05/25 00:51:13;;;;;;;0.97;0.70;;;;;;;15.06;77.95;97870.66;5113040;28;20220;-75
2022/05/25 00:53:39;;;;;;;1.53;0.80;;;;;;;15.00;77.80;97871.22;5113210;28;20227;-75
2022/05/25 00:56:09;;;;;;;1.90;0.77;;;;;;;15.01;78.03;97873.75;5113470;28;20237;-74
2022/05/25 00:58:38;;;;;;;1.17;0.77;;;;;;;15.06;76.70;97871.50;5113529;28;20228;-75
2022/05/25 01:01:05;;;;;;;1.97;0.80;;;;;;;15.03;76.04;97866.44;5110796;28;20218;-74
2022/05/25 01:03:32;;;;;;;0.70;0.70;;;;;;;14.96;77.34;97878.63;5113255;28;20217;-75
2022/05/25 01:06:05;;;;;;;0.60;0.60;;;;;;;14.90;78.26;97873.88;5113581;28;20217;-75
2022/05/25 01:08:43;;;;;;;1.20;0.70;;;;;;;14.83;79.44;97882.53;5112978;28;20217;-74
2022/05/25 01:11:21;;;;;;;1.23;0.70;;;;;;;14.84;79.58;97881.59;5109495;28;20213;-74
2022/05/25 01:13:59;;;;;;;0.90;0.90;;;;;;;14.79;80.43;97889.13;5113080;28;20682;-75
2022/05/25 01:16:35;;;;;;;1.67;0.80;;;;;;;14.73;80.34;97884.38;5113277;28;20244;-75
2022/05/25 01:19:14;;;;;;;0.70;0.70;;;;;;;14.72;80.82;97893.31;5110532;28;20278;-74
2022/05/25 01:21:49;;;;;;;2.20;0.90;;;;;;;14.68;81.23;97891.91;5112566;28;20221;-74
2022/05/25 01:24:30;;;;;;;0.70;0.70;;;;;;;14.67;81.95;97898.22;5111156;28;20213;-75
2022/05/25 01:27:22;;;;;;;1.27;0.70;;;;;;;14.64;81.70;97895.81;5110957;28;20581;-74
2022/05/25 01:30:14;;;;;;;0.53;0.53;;;;;;;14.62;82.26;97903.09;5101889;28;20213;-73
2022/05/25 01:32:49;;;;;;;1.00;0.70;;;;;;;14.55;82.28;97902.78;5102924;28;20240;-74
2022/05/25 01:35:24;;;;;;;0.80;0.70;;;;;;;14.52;81.68;97904.88;5100210;28;20328;-74
2022/05/25 01:37:57;;;;;;;1.53;0.80;;;;;;;14.49;81.62;97899.84;5098820;28;20213;-74
2022/05/25 01:40:27;;;;;;;1.13;0.77;;;;;;;14.42;80.34;97901.38;5102228;28;20216;-74
2022/05/25 01:42:57;;;;;;;1.13;0.77;;;;;;;14.44;79.43;97902.06;5108395;28;20577;-74
2022/05/25 01:45:29;;;;;;;2.10;0.80;;;;;;;14.39;79.53;97890.97;5100178;28;20578;-74
2022/05/25 01:48:00;;;;;;;1.00;0.67;;;;;;;14.40;79.07;97903.28;5102180;28;20222;-74
2022/05/25 01:50:34;;;;;;;0.80;0.80;;;;;;;14.35;79.34;97905.53;5109535;28;20222;-75
2022/05/25 01:53:03;;;;;;;1.23;0.80;;;;;;;14.32;78.94;97895.16;5111949;28;20216;-74
2022/05/25 01:55:35;;;;;;;1.47;0.70;;;;;;;14.32;79.46;97895.16;5111756;28;20256;-75
2022/05/25 01:58:08;;;;;;;1.87;0.80;;;;;;;14.30;79.40;97895.28;5100963;28;20213;-74
2022/05/25 02:00:39;;;;;;;1.17;0.63;;;;;;;14.28;79.78;97904.38;5105351;28;20585;-74
2022/05/25 02:06:04;;;;;;;0.80;0.80;;;;;;;14.26;80.53;97907.19;5100114;28;20220;-76
2022/05/25 02:08:41;;;;;;;1.07;0.70;;;;;;;14.26;81.83;97914.31;5101804;28;20211;-74
2022/05/25 02:11:17;;;;;;;1.17;0.83;;;;;;;14.24;81.85;97905.63;5112224;28;20238;-75
2022/05/25 02:13:56;;;;;;;11.07;1.00;;;;;;;14.24;81.56;97914.44;5100632;28;20220;-74
2022/05/25 02:16:32;;;;;;;1.23;0.70;;;;;;;14.21;82.34;97909.41;5101297;28;20597;-74
2022/05/25 02:19:10;;;;;;;2.20;0.70;;;;;;;14.16;83.16;97910.72;5111976;28;20212;-75
2022/05/25 02:21:44;;;;;;;1.60;0.70;;;;;;;14.11;83.55;97903.16;5100311;28;20217;-75
2022/05/25 02:24:16;;;;;;;0.60;0.60;;;;;;;14.10;82.99;97912.13;5100031;28;20223;-75
2022/05/25 02:26:48;;;;;;;0.70;0.70;;;;;;;14.09;82.27;97907.78;5099272;28;20359;-75
2022/05/25 02:29:19;;;;;;;2.30;0.90;;;;;;;14.12;81.53;97904.00;5099448;28;20231;-75
2022/05/25 02:31:50;;;;;;;0.70;0.70;;;;;;;14.06;82.35;97907.19;5108874;28;20212;-74
2022/05/25 02:34:20;;;;;;;2.00;0.80;;;;;;;14.04;81.03;97911.78;5111643;28;20226;-74
2022/05/25 02:36:48;;;;;;;0.90;0.70;;;;;;;14.06;79.41;97904.53;5111163;28;20773;-74
2022/05/25 02:39:15;;;;;;;1.00;0.70;;;;;;;14.07;77.34;97912.41;5108573;28;20224;-76
2022/05/25 02:41:48;;;;;;;1.03;0.70;;;;;;;14.00;77.21;97910.38;5111483;28;20224;-75
2022/05/25 02:44:14;;;;;;;1.37;0.70;;;;;;;14.06;77.08;97915.19;5110768;28;20240;-76
2022/05/25 02:46:41;;;;;;;1.07;0.80;;;;;;;14.01;77.55;97914.72;5110891;28;20670;-74
2022/05/25 02:49:08;;;;;;;2.97;0.77;;;;;;;14.00;76.66;97923.69;5108612;28;20221;-74
2022/05/25 02:51:35;;;;;;;0.97;0.77;;;;;;;13.99;77.39;97924.66;5111029;28;20634;-75
2022/05/25 02:54:02;;;;;;;0.70;0.60;;;;;;;13.97;77.91;97926.59;5110378;28;20603;-76
2022/05/25 02:56:29;;;;;;;1.73;0.60;;;;;;;13.97;78.20;97924.78;5110283;28;20236;-74
2022/05/25 02:58:55;;;;;;;0.83;0.60;;;;;;;13.94;78.83;97926.84;5108166;28;20224;-74
2022/05/25 03:01:22;;;;;;;1.30;0.57;;;;;;;13.92;78.62;97928.78;5110938;28;20220;-74
2022/05/25 03:03:48;;;;;;;0.80;0.80;;;;;;;13.89;79.48;97934.38;5111017;28;20226;-74
2022/05/25 03:06:16;;;;;;;1.17;0.63;;;;;;;13.83;79.31;97930.44;5111051;28;20211;-74
2022/05/25 03:08:43;;;;;;;0.97;0.67;;;;;;;13.90;77.59;97947.53;5108040;28;20224;-76
2022/05/25 03:11:10;;;;;;;0.80;0.60;;;;;;;13.88;78.63;97948.63;5110858;28;20212;-74
2022/05/25 03:13:36;;;;;;;0.80;0.70;;;;;;;13.86;79.13;97939.94;5110793;28;20579;-76
2022/05/25 03:16:05;;;;;;;1.57;0.70;;;;;;;13.83;79.75;97940.22;5111027;28;20240;-74
2022/05/25 03:18:31;;;;;;;0.70;0.60;;;;;;;13.85;79.63;97946.22;5110855;28;20216;-74
2022/05/25 03:20:58;;;;;;;0.73;0.70;;;;;;;13.82;80.11;97941.19;5107379;28;20217;-74
2022/05/25 03:23:25;;;;;;;0.90;0.77;;;;;;;13.80;80.69;97940.44;5110855;28;20596;-74
2022/05/25 03:25:52;;;;;;;1.10;1.00;;;;;;;13.78;80.61;97950.38;5111002;28;20215;-75
2022/05/25 03:28:19;;;;;;;1.00;0.80;;;;;;;13.79;80.63;97946.75;5110072;28;20219;-74
2022/05/25 03:30:47;;;;;;;0.90;0.73;;;;;;;13.74;80.54;97957.78;5107899;28;20219;-75
2022/05/25 03:33:13;;;;;;;1.27;0.70;;;;;;;13.74;80.61;97951.63;5110853;28;20208;-75
2022/05/25 03:35:40;;;;;;;1.00;0.80;;;;;;;13.77;80.13;97946.03;5110421;28;20641;-75
2022/05/25 03:38:08;;;;;;;1.60;0.80;;;;;;;13.72;80.78;97957.06;5108158;28;20221;-75
2022/05/25 03:40:36;;;;;;;1.07;0.77;;;;;;;13.73;80.87;97963.19;5110287;28;20224;-75
2022/05/25 03:43:04;;;;;;;1.00;0.90;;;;;;;13.70;81.29;97966.13;5110410;28;20223;-75
2022/05/25 03:45:31;;;;;;;0.73;0.73;;;;;;;13.67;81.59;97967.22;5110451;28;20232;-75
2022/05/25 03:47:58;;;;;;;1.27;0.70;;;;;;;13.68;81.71;97968.09;5106354;28;20212;-74
2022/05/25 03:50:24;;;;;;;1.70;0.70;;;;;;;13.69;82.15;97972.41;5110353;28;20212;-74
2022/05/25 03:52:51;;;;;;;0.73;0.70;;;;;;;13.67;81.71;97971.69;5110282;28;20681;-75
2022/05/25 03:55:18;;;;;;;1.37;0.80;;;;;;;13.65;82.08;97974.50;5110192;28;20211;-77
2022/05/25 03:57:46;;;;;;;0.70;0.70;;;;;;;13.65;82.66;97984.25;5108239;28;20317;-75
2022/05/25 04:00:13;;;;;;;1.20;0.87;;;;;;;13.63;84.08;97986.22;5109851;28;20234;-75
2022/05/25 04:02:39;;;;;;;0.77;0.70;;;;;;;13.64;83.61;97987.91;5109982;28;20701;-75
2022/05/25 04:05:09;;;;;;;0.73;0.73;;;;;;;13.65;83.64;97994.88;5110274;28;20216;-75
2022/05/25 04:07:38;;;;;;;0.60;0.60;;;;;;;13.62;84.52;97990.66;5108022;28;20217;-74
2022/05/25 04:10:06;;;;;;;1.13;0.90;;;;;;;13.63;85.25;97996.84;5109827;28;20693;-75
2022/05/25 04:12:33;;;;;;;3.23;0.90;;;;;;;13.59;85.13;97996.25;5108460;28;20237;-75
2022/05/25 04:15:01;;;;;;;1.33;0.80;;;;;;;13.56;85.26;97996.50;5110482;28;20221;-74
2022/05/25 04:17:27;;;;;;;1.30;0.80;;;;;;;13.57;85.05;98007.97;5107762;28;20248;-74
2022/05/25 04:19:55;;;;;;;1.63;0.90;;;;;;;13.54;85.07;98010.84;5109781;28;20693;-76
2022/05/25 04:22:22;;;;;;;1.00;0.90;;;;;;;13.51;85.10;98008.47;5110189;28;20221;-74
2022/05/25 04:24:48;;;;;;;1.17;0.80;;;;;;;13.48;85.41;98014.03;5110211;28;20215;-74
2022/05/25 04:27:14;;;;;;;0.97;0.80;;;;;;;13.45;85.91;98008.97;5108206;28;20224;-74
2022/05/25 04:29:41;;;;;;;0.87;0.87;;;;;;;13.39;86.19;98014.78;5105056;28;20662;-75
2022/05/25 04:32:09;;;;;;;0.80;0.80;;;;;;;13.35;87.15;98019.50;5114123;28;20216;-74
2022/05/25 04:34:36;;;;;;;0.77;0.70;;;;;;;13.33;87.34;98025.91;5114235;28;20217;-74
2022/05/25 04:39:43;;;;;;;0.80;0.70;;;;;;;13.41;87.38;98034.09;5109286;28;20219;-75
2022/05/25 04:42:09;;;;;;;1.50;0.80;;;;;;;13.47;87.50;98037.09;5113632;28;20219;-74
2022/05/25 04:44:36;;;;;;;1.57;0.97;;;;;;;13.59;87.00;98037.88;5113698;28;20238;-74
2022/05/25 04:47:02;;;;;;;1.67;0.83;;;;;;;13.69;86.48;98041.47;5110432;28;20232;-75
2022/05/25 04:49:30;;;;;;;0.70;0.70;;;;;;;13.78;85.80;98043.34;5113773;28;20442;-75
2022/05/25 04:51:57;;;;;;;1.90;1.00;;;;;;;13.86;85.64;98052.38;5113487;28;20208;-76
2022/05/25 04:54:23;;;;;;;1.47;1.00;;;;;;;13.92;86.02;98051.84;5113651;28;20216;-75
2022/05/25 04:59:34;;;;;;;1.13;0.70;;;;;;;14.00;83.89;98065.34;5102493;28;20579;-74
2022/05/25 05:02:00;;;;;;;1.27;0.80;;;;;;;13.99;83.51;98063.66;5113499;28;20223;-76
2022/05/25 05:04:27;;;;;;;0.87;0.80;;;;;;;13.99;84.68;98068.16;5111592;28;20234;-75
2022/05/25 05:06:55;;;;;;;2.73;0.90;;;;;;;14.00;84.06;98075.97;5111293;28;20219;-74
2022/05/25 05:09:21;;;;;;;0.90;0.87;;;;;;;13.98;83.72;98071.75;5113081;28;20223;-74
2022/05/25 05:11:48;;;;;;;0.70;0.70;;;;;;;13.95;83.12;98082.66;5113484;28;20218;-74
2022/05/25 05:14:15;;;;;;;0.87;0.87;;;;;;;13.93;83.10;98089.91;5113267;28;20217;-75
2022/05/25 05:16:41;;;;;;;1.80;0.80;;;;;;;13.94;82.69;98092.41;5111582;28;20248;-74
2022/05/25 05:19:08;;;;;;;1.00;0.80;;;;;;;14.01;83.13;98087.44;5112598;28;20214;-75
2022/05/25 05:21:35;;;;;;;1.27;0.80;;;;;;;14.15;83.02;98090.63;5112848;28;20586;-75
2022/05/25 05:24:03;;;;;;;0.70;0.70;;;;;;;14.55;81.40;98093.44;5113236;28;20593;-74
2022/05/25 05:26:30;;;;;;;0.70;0.70;;;;;;;14.96;79.35;98091.53;5111405;28;20684;-73
2022/05/25 05:28:56;;;;;;;1.43;0.90;;;;;;;15.34;76.94;98089.03;5099821;28;20220;-75
2022/05/25 05:31:23;;;;;;;1.33;0.90;;;;;;;16.08;74.54;98099.94;5110752;28;20686;-74
2022/05/25 05:33:49;;;;;;;1.37;0.90;;;;;;;17.10;68.92;98103.53;5112676;28;20243;-73
2022/05/25 05:36:22;;;;;;;3.53;0.90;;;;;;;17.71;63.62;98099.28;5109416;28;20245;-73
2022/05/25 05:38:51;;;;;;;3.10;0.87;;;;;;;18.08;60.83;98101.81;5112260;28;20210;-73
2022/05/25 05:41:22;;;;;;;2.00;0.80;;;;;;;18.38;60.95;98109.47;5111206;28;20225;-74
2022/05/25 05:43:50;;;;;;;0.80;0.80;;;;;;;18.55;62.18;98109.47;5111389;28;20245;-75
2022/05/25 05:46:17;;;;;;;1.10;0.80;;;;;;;19.07;57.50;98107.63;5103165;28;20226;-74
2022/05/25 05:48:44;;;;;;;1.10;1.00;;;;;;;19.79;55.00;98111.47;5108371;28;20221;-74
2022/05/25 05:51:11;;;;;;;1.73;0.80;;;;;;;20.67;50.24;98111.56;5100189;28;20241;-74
2022/05/25 05:53:40;;;;;;;2.03;1.00;;;;;;;21.27;49.49;98117.38;5100472;28;20215;-74
2022/05/25 05:56:08;;;;;;;0.97;0.80;;;;;;;21.50;48.26;98103.00;5102817;28;20241;-75
2022/05/25 05:58:36;;;;;;;1.23;1.00;;;;;;;22.05;46.71;98114.50;5100945;28;20206;-74
2022/05/25 06:01:02;;;;;;;1.43;0.80;;;;;;;21.83;47.51;98119.84;5112568;28;20214;-74
2022/05/25 06:03:29;;;;;;;0.90;0.80;;;;;;;20.34;49.43;98120.66;5112350;28;20210;-74
2022/05/25 06:05:56;;;;;;;2.83;0.80;;;;;;;18.96;54.24;98127.47;5101281;28;20210;-74
2022/05/25 06:08:24;;;;;;;0.87;0.87;;;;;;;17.97;59.25;98132.31;5112249;28;20217;-74
2022/05/25 06:10:51;;;;;;;1.10;0.90;;;;;;;17.38;62.00;98139.97;5112447;28;20214;-73
2022/05/25 06:13:17;;;;;;;1.00;0.87;;;;;;;17.38;61.20;98142.66;5112237;28;20206;-74
2022/05/25 06:21:18;;;;;;;1.40;0.70;;;;;;;20.59;51.24;98135.75;5111894;28;20260;-74
2022/05/25 06:23:44;;;;;;;1.03;0.70;;;;;;;21.30;48.43;98139.38;5107720;28;20285;-74
2022/05/25 06:26:12;;;;;;;1.23;1.00;;;;;;;22.25;46.58;98142.63;5111542;28;20210;-73
2022/05/25 06:28:39;;;;;;;0.80;0.70;;;;;;;23.29;43.71;98140.97;5099930;28;20217;-72
2022/05/25 06:31:07;;;;;;;1.27;0.90;;;;;;;23.88;41.58;98146.16;5105831;28;20213;-72
2022/05/25 06:33:33;;;;;;;1.63;1.00;;;;;;;24.59;41.14;98151.59;5109805;28;20225;-74
2022/05/25 06:36:12;;;;;;;2.10;0.90;;;;;;;24.22;41.29;98159.03;5111545;28;20237;-73
2022/05/25 06:38:38;;;;;;;1.33;0.80;;;;;;;23.21;43.30;98158.06;5111222;28;20297;-73
2022/05/25 06:41:05;;;;;;;2.97;0.90;;;;;;;22.36;45.07;98169.16;5108558;28;20215;-73
2022/05/25 06:43:32;;;;;;;1.10;0.73;;;;;;;21.46;46.44;98171.59;5111291;28;20245;-73
2022/05/25 06:45:59;;;;;;;2.53;1.00;;;;;;;20.82;48.83;98171.69;5111467;28;20245;-73
2022/05/25 06:48:26;;;;;;;2.00;0.90;;;;;;;20.98;48.73;98169.00;5109402;28;20218;-73
2022/05/25 06:50:53;;;;;;;2.37;1.10;;;;;;;20.95;49.95;98172.03;5108421;28;20218;-74
2022/05/25 06:53:19;;;;;;;3.47;1.43;;;;;;;20.85;50.55;98171.31;5108518;28;20579;-73
2022/05/25 06:55:47;;;;;;;1.60;1.00;;;;;;;20.68;50.35;98175.03;5111550;28;20218;-74
2022/05/25 06:58:13;;;;;;;2.17;0.90;;;;;;;20.21;49.50;98182.03;5111200;28;20315;-73
2022/05/25 07:00:40;;;;;;;2.37;1.20;;;;;;;19.68;51.01;98184.16;5108850;28;20232;-75
2022/05/25 07:03:07;;;;;;;2.00;1.10;;;;;;;19.27;53.36;98182.28;5110339;28;20748;-74
2022/05/25 07:05:35;;;;;;;1.33;0.90;;;;;;;18.91;52.96;98193.22;5110991;28;20242;-73
2022/05/25 07:08:01;;;;;;;1.17;1.00;;;;;;;18.52;53.13;98198.09;5110999;28;20207;-72
2022/05/25 07:10:28;;;;;;;1.10;1.00;;;;;;;18.20;56.98;98203.09;5107471;28;20210;-73
2022/05/25 07:12:54;;;;;;;1.43;0.97;;;;;;;17.91;56.68;98210.47;5108818;28;20218;-73
2022/05/25 07:15:21;;;;;;;1.30;1.00;;;;;;;17.79;56.42;98208.97;5107862;28;20217;-73
2022/05/25 07:17:48;;;;;;;2.83;1.03;;;;;;;17.55;56.43;98203.31;5109447;28;20237;-70
2022/05/25 07:20:14;;;;;;;0.80;0.80;;;;;;;17.35;57.80;98201.69;5107922;28;20214;-69
2022/05/25 07:22:42;;;;;;;1.77;1.00;;;;;;;17.30;58.55;98198.63;5108386;28;20210;-69
2022/05/25 07:25:09;;;;;;;1.83;0.90;;;;;;;17.27;59.68;98206.94;5109420;28;20236;-69
2022/05/25 07:27:36;;;;;;;2.83;1.00;;;;;;;17.32;60.15;98198.47;5109329;28;20221;-69
2022/05/25 07:30:03;;;;;;;1.70;1.50;;;;;;;17.45;60.94;98210.56;5095391;28;20211;-69
2022/05/25 07:32:29;;;;;;;1.10;1.00;;;;;;;17.60;57.38;98209.09;5106972;28;20217;-70
2022/05/25 07:35:00;;;;;;;1.73;0.87;;;;;;;17.63;56.87;98211.44;5109397;28;20216;-70
2022/05/25 07:37:32;;;;;;;1.97;1.00;;;;;;;17.50;57.54;98215.47;5109461;28;20291;-70
2022/05/25 07:40:04;;;;;;;2.90;1.17;;;;;;;17.54;57.99;98216.84;5109145;28;20213;-70
2022/05/25 07:42:32;;;;;;;1.03;0.90;;;;;;;17.67;56.45;98210.16;5105172;28;20214;-69
2022/05/25 07:45:00;;;;;;;1.87;1.00;;;;;;;17.74;56.02;98221.13;5108741;28;20241;-69
2022/05/25 07:47:28;;;;;;;2.40;1.10;;;;;;;17.84;54.22;98220.09;5108982;28;20694;-69
2022/05/25 07:49:55;;;;;;;2.70;1.00;;;;;;;17.82;55.11;98218.53;5105917;28;20716;-69
2022/05/25 07:52:24;;;;;;;0.97;0.70;;;;;;;17.86;56.15;98220.75;5108827;28;20206;-69
2022/05/25 07:54:51;;;;;;;1.17;0.80;;;;;;;18.08;56.16;98209.66;5108780;28;20213;-69
2022/05/25 07:57:18;;;;;;;2.27;0.90;;;;;;;18.17;56.47;98219.44;5109041;28;20248;-69
2022/05/25 07:59:45;;;;;;;1.63;0.80;;;;;;;18.39;56.72;98224.41;5106134;28;20238;-69
2022/05/25 08:07:47;;;;;;;1.83;0.90;;;;;;;19.41;49.21;98223.75;5100288;28;20211;-69
2022/05/25 08:10:17;;;;;;;3.27;0.93;;;;;;;19.45;49.34;98222.44;5101336;28;20268;-70
2022/05/25 08:12:46;;;;;;;1.37;0.97;;;;;;;19.26;50.51;98219.97;5100739;28;20210;-70
2022/05/25 08:15:15;;;;;;;3.03;1.13;;;;;;;19.09;52.80;98213.59;5112311;28;20216;-69
2022/05/25 08:17:41;;;;;;;2.20;0.93;;;;;;;19.14;52.94;98216.66;5110744;28;20322;-68
2022/05/25 08:20:10;;;;;;;1.37;1.00;;;;;;;19.04;51.98;98220.44;5112759;28;20221;-69
2022/05/25 08:22:37;;;;;;;1.10;0.80;;;;;;;18.93;50.91;98221.53;5113096;28;20579;-69
2022/05/25 08:25:04;;;;;;;1.50;0.90;;;;;;;18.91;52.01;98220.84;5113178;28;20225;-70
2022/05/25 08:27:31;;;;;;;1.00;0.90;;;;;;;18.91;52.00;98220.84;5110526;28;20212;-69
2022/05/25 08:29:59;;;;;;;1.93;0.90;;;;;;;18.72;50.30;98213.00;5109486;28;20242;-69
2022/05/25 08:32:26;;;;;;;1.37;0.90;;;;;;;18.56;50.81;98215.53;5112318;28;20667;-70
2022/05/25 08:34:52;;;;;;;1.50;1.07;;;;;;;18.55;52.09;98221.91;5110283;28;20218;-70
2022/05/25 08:37:20;;;;;;;1.83;0.83;;;;;;;18.79;51.38;98210.53;5110405;28;20246;-69
2022/05/25 08:39:47;;;;;;;2.57;1.00;;;;;;;19.13;50.68;98215.00;5112373;28;20693;-69
2022/05/25 08:42:16;;;;;;;6.90;1.47;;;;;;;19.26;47.87;98210.09;5112138;28;20676;-71
2022/05/25 08:44:44;;;;;;;2.00;1.10;;;;;;;19.24;48.65;98212.09;5111509;28;20238;-69
2022/05/25 08:47:13;;;;;;;0.70;0.70;;;;;;;19.16;50.25;98209.34;5110128;28;20223;-69
2022/05/25 08:49:43;;;;;;;1.10;0.80;;;;;;;19.19;52.84;98214.34;5112635;28;20233;-69
2022/05/25 08:52:22;;;;;;;0.83;0.70;;;;;;;19.06;52.04;98219.28;5112095;28;20241;-70
2022/05/25 08:54:49;;;;;;;1.37;0.90;;;;;;;18.94;52.83;98214.34;5112203;28;20217;-69
2022/05/25 08:57:20;;;;;;;3.00;1.10;;;;;;;18.68;50.62;98214.31;5109910;28;20235;-69
2022/05/25 08:59:51;;;;;;;1.20;0.90;;;;;;;18.51;50.72;98207.13;5110619;28;20587;-70
2022/05/25 09:02:27;;;;;;;1.83;1.07;;;;;;;18.70;52.72;98212.31;5112389;28;20225;-70
2022/05/25 09:04:58;;;;;;;1.00;0.90;;;;;;;18.91;51.94;98212.81;5102153;28;20210;-69
2022/05/25 09:07:33;;;;;;;0.90;0.70;;;;;;;19.29;51.31;98211.59;5101507;28;20265;-68
2022/05/25 09:09:59;;;;;;;1.17;0.90;;;;;;;19.66;48.11;98213.00;5111899;28;20679;-70
2022/05/25 09:12:30;;;;;;;1.87;1.03;;;;;;;19.85;48.82;98217.25;5112201;28;20234;-70
2022/05/25 09:15:02;;;;;;;1.10;0.90;;;;;;;19.95;48.79;98217.97;5109406;28;20221;-70
2022/05/25 09:17:33;;;;;;;0.87;0.80;;;;;;;20.02;46.77;98211.81;5111592;28;20240;-71
2022/05/25 09:20:01;;;;;;;1.47;0.80;;;;;;;20.06;47.39;98204.31;5111664;28;20225;-70
2022/05/25 09:22:29;;;;;;;0.93;0.63;;;;;;;19.97;46.23;98216.81;5100521;28;20206;-70
2022/05/25 09:24:58;;;;;;;1.00;0.90;;;;;;;19.78;45.92;98203.66;5100247;28;20634;-70
2022/05/25 09:27:29;;;;;;;1.07;0.80;;;;;;;19.66;46.07;98213.00;5097666;28;20215;-70
2022/05/25 09:29:59;;;;;;;1.63;0.77;;;;;;;19.82;46.08;98217.59;5106118;28;20221;-69
2022/05/25 09:32:38;;;;;;;1.03;0.80;;;;;;;20.08;46.27;98219.25;5109337;28;20221;-70
2022/05/25 09:35:09;;;;;;;3.73;1.20;;;;;;;20.52;45.58;98218.00;5102149;28;20220;-70
2022/05/25 09:37:44;;;;;;;1.43;0.87;;;;;;;20.61;43.52;98224.22;5111099;28;20276;-69
2022/05/25 09:40:19;;;;;;;2.03;0.80;;;;;;;20.58;43.84;98224.53;5100177;28;20213;-69
2022/05/25 09:42:50;;;;;;;1.23;0.70;;;;;;;20.30;44.31;98223.97;5100058;28;20591;-69
2022/05/25 09:45:17;;;;;;;1.97;0.70;;;;;;;20.21;44.81;98219.63;5111306;28;20242;-69
2022/05/25 09:47:47;;;;;;;1.00;0.70;;;;;;;20.32;44.74;98227.38;5111096;28;20213;-69
2022/05/25 09:50:17;;;;;;;2.47;0.80;;;;;;;20.31;44.05;98225.66;5108801;28;20215;-69
2022/05/25 09:52:49;;;;;;;0.87;0.80;;;;;;;20.18;44.04;98219.91;5109796;28;20225;-69
2022/05/25 09:55:19;;;;;;;1.83;0.70;;;;;;;19.87;45.01;98226.00;5110855;28;20711;-69
2022/05/25 09:57:54;;;;;;;1.30;0.87;;;;;;;19.85;45.44;98228.84;5107914;28;20231;-69
2022/05/25 10:00:23;;;;;;;0.73;0.67;;;;;;;19.89;44.44;98224.84;5109611;28;20220;-70
2022/05/25 10:02:58;;;;;;;0.93;0.80;;;;;;;19.82;45.98;98221.09;5110100;28;20214;-69
2022/05/25 10:05:28;;;;;;;1.43;0.73;;;;;;;20.04;45.18;98228.56;5109338;28;20214;-69
2022/05/25 10:07:59;;;;;;;1.83;0.80;;;;;;;20.13;44.09;98224.97;5107864;28;20222;-69
2022/05/25 10:10:31;;;;;;;0.93;0.60;;;;;;;20.11;44.84;98210.84;5110650;28;20246;-68
2022/05/25 10:13:01;;;;;;;2.90;0.73;;;;;;;20.26;45.03;98206.53;5110662;28;20267;-69
2022/05/25 10:15:34;;;;;;;3.67;0.90;;;;;;;20.53;44.94;98218.81;5110648;28;20580;-69
2022/05/25 10:18:02;;;;;;;2.63;0.80;;;;;;;20.84;42.97;98222.56;5109334;28;20230;-69
2022/05/25 10:20:34;;;;;;;1.07;0.80;;;;;;;20.87;42.45;98212.31;5108831;28;20210;-69
2022/05/25 10:23:05;;;;;;;0.63;0.63;;;;;;;20.74;42.22;98217.34;5110745;28;20240;-73
2022/05/25 10:25:36;;;;;;;1.07;0.93;;;;;;;20.44;43.58;98226.03;5108300;28;20213;-73
2022/05/25 10:28:10;;;;;;;0.73;0.60;;;;;;;20.51;42.80;98227.06;5099554;28;20210;-72
2022/05/25 10:39:18;;;;;;;2.00;0.70;;;;;;;21.27;41.40;98223.06;5109646;28;20274;-73
2022/05/25 10:41:58;;;;;;;1.43;0.50;;;;;;;21.24;41.20;98222.56;5110022;28;20244;-72
2022/05/25 10:44:26;;;;;;;1.03;0.60;;;;;;;21.27;40.47;98214.16;5110105;28;20713;-73
2022/05/25 10:46:54;;;;;;;0.87;0.70;;;;;;;21.13;42.66;98217.53;5107288;28;20214;-72
2022/05/25 10:49:28;;;;;;;0.70;0.70;;;;;;;21.03;42.32;98222.25;5107799;28;20419;-74
2022/05/25 10:52:00;;;;;;;0.90;0.70;;;;;;;20.85;41.31;98214.31;5109580;28;20483;-75
2022/05/25 10:54:47;;;;;;;1.53;0.80;;;;;;;20.69;41.48;98226.91;5109738;28;20206;-73
2022/05/25 10:57:51;;;;;;;0.90;0.70;;;;;;;20.49;42.28;98221.00;5107961;28;20214;-74
2022/05/25 11:00:21;;;;;;;0.70;0.50;;;;;;;20.50;41.84;98222.69;5109947;28;20216;-74
2022/05/25 11:03:20;;;;;;;1.20;0.70;;;;;;;20.54;42.44;98218.66;5096352;28;20215;-73
2022/05/25 11:05:56;;;;;;;1.90;0.70;;;;;;;20.40;42.83;98223.84;5102462;28;20216;-74
2022/05/25 11:08:41;;;;;;;0.70;0.70;;;;;;;20.48;43.67;98219.31;5106641;28;20263;-74
2022/05/25 11:11:17;;;;;;;2.23;0.70;;;;;;;20.56;42.80;98219.34;5105814;28;20229;-74
2022/05/25 11:14:03;;;;;;;1.40;0.70;;;;;;;20.66;43.06;98214.66;5105517;28;20679;-74
2022/05/25 11:16:42;;;;;;;1.17;0.67;;;;;;;20.84;44.68;98217.19;5103208;28;20253;-73
2022/05/25 11:19:32;;;;;;;2.23;0.90;;;;;;;20.99;43.53;98211.00;5099018;28;20240;-73
2022/05/25 11:22:20;;;;;;;0.73;0.63;;;;;;;21.17;41.68;98218.88;5106254;28;20214;-70
2022/05/25 11:25:01;;;;;;;2.27;0.77;;;;;;;21.09;41.49;98211.66;5104800;28;20225;-69
2022/05/25 11:27:40;;;;;;;1.27;0.70;;;;;;;21.23;43.81;98228.94;5109181;28;20217;-69
2022/05/25 11:30:13;;;;;;;2.10;0.80;;;;;;;21.37;40.40;98229.09;5093253;28;20213;-69
2022/05/25 11:32:58;;;;;;;2.17;0.90;;;;;;;21.06;41.04;98206.63;5106545;28;20680;-69
2022/05/25 11:35:46;;;;;;;0.67;0.60;;;;;;;20.86;41.76;98213.31;5108844;28;20589;-69
2022/05/25 11:38:21;;;;;;;1.70;0.80;;;;;;;20.74;42.70;98214.66;5088494;28;20240;-69
2022/05/25 11:41:00;;;;;;;3.27;0.70;;;;;;;20.70;42.32;98216.00;5103733;28;20202;-69
2022/05/25 11:43:45;;;;;;;1.53;0.63;;;;;;;20.81;41.36;98225.56;5108950;28;20268;-70
2022/05/25 11:46:19;;;;;;;1.33;0.80;;;;;;;20.56;41.60;98219.34;5098247;28;20581;-69
2022/05/25 11:49:19;;;;;;;1.20;0.70;;;;;;;20.44;42.72;98214.44;5101285;28;20217;-69
2022/05/25 11:51:56;;;;;;;2.83;0.80;;;;;;;20.37;42.34;98213.44;5087123;28;20690;-69
2022/05/25 11:54:38;;;;;;;1.57;0.87;;;;;;;20.27;41.00;98213.59;5101941;28;20213;-69
2022/05/25 11:57:12;;;;;;;2.13;0.80;;;;;;;20.13;41.32;98216.91;5105214;28;20214;-70
2022/05/25 12:00:14;;;;;;;1.30;0.80;;;;;;;20.12;42.88;98211.69;5111082;28;20237;-69
2022/05/25 12:03:06;;;;;;;1.40;0.60;;;;;;;20.27;42.67;98218.97;5109795;28;20214;-69
2022/05/25 12:05:46;;;;;;;1.53;0.87;;;;;;;20.37;44.25;98208.88;5109397;28;20210;-69
2022/05/25 12:08:44;;;;;;;0.90;0.63;;;;;;;20.77;42.10;98208.94;5107663;28;20222;-69
2022/05/25 12:11:24;;;;;;;0.93;0.63;;;;;;;21.07;41.63;98213.69;5069952;28;20207;-72
2022/05/25 12:14:14;;;;;;;0.90;0.70;;;;;;;21.27;40.61;98217.69;5103343;28;20282;-69
2022/05/25 12:16:44;;;;;;;1.20;0.60;;;;;;;21.52;40.79;98213.94;5105987;28;20221;-70
2022/05/25 12:19:14;;;;;;;0.80;0.60;;;;;;;21.75;39.60;98209.53;5114590;28;20241;-68
2022/05/25 12:21:45;;;;;;;1.30;0.60;;;;;;;21.83;39.88;98212.16;5106158;28;20214;-68